KMCE/MCE METAR and TAF weather

Enter ICAO airport designator
Station Type Date Time Source
KMCE METAR 2019/06/19 00:53 UTC NOAA

KMCE 190053Z AUTO 32010KT 10SM CLR 37/18 A2979 RMK AO2 SLP084 T03670183


Station Type Date Time Source
KMCE Decoded METAR 2019/06/19 00:53 UTC NOAA

MERCED MUNICIPAL AIRPORT, CA, United States (KMCE) 37-17N 120-30W 47M
Jun 18, 2019 - 08:53 PM EDT / 2019.06.19 0053 UTC
Wind: from the NW (320 degrees) at 12 MPH (10 KT):0
Visibility: 10 mile(s):0
Sky conditions: clear
Temperature: 98.1 F (36.7 C)
Heat index: 101.3 F (38.5 C):1
Dew Point: 64.9 F (18.3 C)
Relative Humidity: 34%
Pressure (altimeter): 29.79 in. Hg (1008 hPa)
ob: KMCE 190053Z AUTO 32010KT 10SM CLR 37/18 A2979 RMK AO2 SLP084 T03670183
cycle: 1

Station Type Date Time Source
KMCE TAF 2019/06/18 18:39 UTC NOAA

TAF KMCE 181737Z 1818/1918 32006KT P6SM FEW200

Example: see airport list